CheckWX is a tool to help pilots better visualize weather data.  It is not intended as a substitute for an official pre-flight weather briefing.

12:59:31 UTC

K0V4 METAR
Brookneal Airport
Brookneal, Virginia, USA
Current

25 mins ago

K0V4 221235Z AUTO 04005KT 4SM BKN012 BKN022 OVC090 09/09 A3028 RMK AO1 P0004 T00910090
Observed
Feb-22 @ 12:35 UTC
Wind
  • 040° at 5 KTS
Visibility
4 SM
Flight Rules
MVFR
Cloud Levels
  • Broken at 1,200' AGL
  • Broken at 2,200' AGL
  • Overcast at 9,000' AGL
Temperature
C / 48°F
Dewpoint
C / 48°F
Humidity
100%
Altimeter
30.28" Hg
Pressure
1025.42 hPa
Current Rain
0.04"
Previous

45 mins ago

K0V4 221215Z AUTO 00000KT 4SM SCT024 BKN090 OVC110 09/09 A3028 RMK AO1 P0002 T00900090
Observed
Feb-22 @ 12:15 UTC
Visibility
4 SM
Flight Rules
MVFR
Cloud Levels
  • Scattered at 2,400' AGL
  • Broken at 9,000' AGL
  • Overcast at 11,000' AGL
Temperature
C / 48°F
Dewpoint
C / 48°F
Humidity
100%
Altimeter
30.28" Hg
Pressure
1025.42 hPa
Current Rain
0.02"
Previous

1 hour ago

K0V4 221155Z AUTO 00000KT 3SM SCT090 OVC110 09/09 A3028 RMK AO1 P0005 60018 70018 T00900090 10109 20088
Observed
Feb-22 @ 11:55 UTC
Visibility
3 SM
Flight Rules
MVFR
Cloud Levels
  • Scattered at 9,000' AGL
  • Overcast at 11,000' AGL
Temperature
C / 48°F
Dewpoint
C / 48°F
Humidity
100%
Altimeter
30.28" Hg
Pressure
1025.42 hPa
Current Rain
0.05"